Αρχική σελίδα
METAR-TAF:

METAR-TAF

Αεροδρόμια :

Hoonah, Αλάσκα, Ηνωμένες Πολιτείες Αμερικής

γεωγραφικό πλάτος: 58-07N, γεωγραφικό μήκος: 135-27W, υψόμετρο: 0 μ

Παρών καιρός

Η αναφορά έγινε 1 ώρα και 6 λεπτά πριν, στις 04:56 UTC
Άνεμος 5 kt από Β/BΔ
Θερμοκρασία 3°C
Υγρασία 93%
Πίεση 1003 hPa
Ορατότητα: 14.5 χλμ
Διάσπαρτα νέφη σε ύψος 3700 πόδια
Αρκετά νέφη σε ύψος 4700 πόδια
Νεφοσκεπής σε ύψος 6000 πόδια

METAR: PAOH 280456Z AUTO 33005KT 9SM SCT037 BKN047 OVC060 03/02 A2961 RMK AO2 SLP026 T00280017 PWINO $

Χρόνος: 21:02 (06:02 UTC)


TAF: λείπει

Μετεωρολογικές αναφορές και προγνώσεις για περισσότερα από 4000 αεροδρόμια (δελτία METAR και TAF).

Οι διαθέσιμοι σταθμοί απεικονίζονται στο χάρτη με κίτρινες και κόκκινες κουκκίδες.

Μετακινήστε το ποντίκι πάνω από τις κουκκίδες για να δείτε το όνομα του σταθμού.

Στη συνέχεια, κάντε κλικ για να δείτε τις μετεωρολογικές αναφορές και τις προγνώσεις καιρού.

Για να αλλάξετε το χάρτη: κάντε κλικ στα πράσινα κουμπιά με τον μαύρο σταυρό για να ζουμάρετε, στο πράσινο κουμπί με την παύλα για να αφαιρέσετε το ζουμ ή στα πράσινα βέλη για να αντιπαραβάλλετε χάρτες.


METAR-TAF: